sensor_id;sensor_type;location;lat;lon;timestamp;P1;durP1;ratioP1;P2;durP2;ratioP2
53391;SDS011;41667;51.922;8.850;2023-02-18T00:00:51;7.10;;;2.57;;
53391;SDS011;41667;51.922;8.850;2023-02-18T00:03:16;4.55;;;2.58;;
53391;SDS011;41667;51.922;8.850;2023-02-18T00:05:41;12.02;;;3.45;;
53391;SDS011;41667;51.922;8.850;2023-02-18T00:08:06;9.35;;;3.20;;
53391;SDS011;41667;51.922;8.850;2023-02-18T00:10:31;7.55;;;3.30;;
53391;SDS011;41667;51.922;8.850;2023-02-18T00:12:56;7.07;;;3.17;;
53391;SDS011;41667;51.922;8.850;2023-02-18T00:15:21;13.40;;;4.13;;
53391;SDS011;41667;51.922;8.850;2023-02-18T00:17:46;9.98;;;4.03;;
53391;SDS011;41667;51.922;8.850;2023-02-18T00:20:11;9.95;;;5.13;;
53391;SDS011;41667;51.922;8.850;2023-02-18T00:22:37;10.95;;;4.65;;
53391;SDS011;41667;51.922;8.850;2023-02-18T00:25:02;10.77;;;5.00;;
53391;SDS011;41667;51.922;8.850;2023-02-18T00:27:27;13.17;;;5.50;;
53391;SDS011;41667;51.922;8.850;2023-02-18T00:29:52;18.80;;;8.10;;
53391;SDS011;41667;51.922;8.850;2023-02-18T00:32:17;13.18;;;6.35;;
53391;SDS011;41667;51.922;8.850;2023-02-18T00:34:42;16.73;;;7.47;;
53391;SDS011;41667;51.922;8.850;2023-02-18T00:37:08;23.80;;;7.07;;
53391;SDS011;41667;51.922;8.850;2023-02-18T00:39:33;14.18;;;7.22;;
53391;SDS011;41667;51.922;8.850;2023-02-18T00:41:58;19.13;;;7.85;;
53391;SDS011;41667;51.922;8.850;2023-02-18T00:44:23;14.27;;;7.65;;
53391;SDS011;41667;51.922;8.850;2023-02-18T00:46:48;19.13;;;9.18;;
53391;SDS011;41667;51.922;8.850;2023-02-18T00:49:14;22.80;;;10.83;;
53391;SDS011;41667;51.922;8.850;2023-02-18T00:51:39;20.15;;;8.70;;
53391;SDS011;41667;51.922;8.850;2023-02-18T00:54:04;18.47;;;10.43;;
53391;SDS011;41667;51.922;8.850;2023-02-18T00:56:29;18.73;;;10.77;;
53391;SDS011;41667;51.922;8.850;2023-02-18T00:58:54;21.40;;;11.10;;
53391;SDS011;41667;51.922;8.850;2023-02-18T01:01:19;24.40;;;10.88;;
53391;SDS011;41667;51.922;8.850;2023-02-18T01:03:45;23.58;;;11.63;;
53391;SDS011;41667;51.922;8.850;2023-02-18T01:06:10;20.17;;;10.55;;
53391;SDS011;41667;51.922;8.850;2023-02-18T01:08:36;24.33;;;11.13;;
53391;SDS011;41667;51.922;8.850;2023-02-18T01:11:02;28.48;;;13.73;;
53391;SDS011;41667;51.922;8.850;2023-02-18T01:13:27;24.65;;;11.10;;
53391;SDS011;41667;51.922;8.850;2023-02-18T01:15:53;26.50;;;12.88;;
53391;SDS011;41667;51.922;8.850;2023-02-18T01:18:18;26.70;;;12.02;;
53391;SDS011;41667;51.922;8.850;2023-02-18T01:20:43;24.85;;;12.27;;
53391;SDS011;41667;51.922;8.850;2023-02-18T01:23:09;30.65;;;13.50;;
53391;SDS011;41667;51.922;8.850;2023-02-18T01:25:34;28.33;;;13.82;;
53391;SDS011;41667;51.922;8.850;2023-02-18T01:28:00;28.50;;;13.07;;
53391;SDS011;41667;51.922;8.850;2023-02-18T01:30:25;27.50;;;12.90;;
53391;SDS011;41667;51.922;8.850;2023-02-18T01:32:50;35.55;;;13.95;;
53391;SDS011;41667;51.922;8.850;2023-02-18T01:35:16;31.55;;;12.60;;
53391;SDS011;41667;51.922;8.850;2023-02-18T01:37:42;24.33;;;12.60;;
53391;SDS011;41667;51.922;8.850;2023-02-18T01:40:07;30.33;;;14.47;;
53391;SDS011;41667;51.922;8.850;2023-02-18T01:42:33;23.40;;;11.90;;
53391;SDS011;41667;51.922;8.850;2023-02-18T01:47:42;28.45;;;12.82;;
53391;SDS011;41667;51.922;8.850;2023-02-18T01:50:07;35.28;;;16.67;;
53391;SDS011;41667;51.922;8.850;2023-02-18T01:52:32;31.15;;;13.88;;
53391;SDS011;41667;51.922;8.850;2023-02-18T01:54:57;32.47;;;16.20;;
53391;SDS011;41667;51.922;8.850;2023-02-18T01:57:24;32.05;;;15.93;;
53391;SDS011;41667;51.922;8.850;2023-02-18T01:59:51;33.47;;;16.15;;
53391;SDS011;41667;51.922;8.850;2023-02-18T02:02:18;32.45;;;17.17;;
53391;SDS011;41667;51.922;8.850;2023-02-18T02:04:44;35.63;;;16.60;;
53391;SDS011;41667;51.922;8.850;2023-02-18T02:07:09;37.15;;;17.80;;
53391;SDS011;41667;51.922;8.850;2023-02-18T02:09:34;37.77;;;16.60;;
53391;SDS011;41667;51.922;8.850;2023-02-18T02:14:34;33.60;;;16.25;;
53391;SDS011;41667;51.922;8.850;2023-02-18T02:17:07;38.25;;;17.42;;
53391;SDS011;41667;51.922;8.850;2023-02-18T02:24:40;31.60;;;16.92;;
53391;SDS011;41667;51.922;8.850;2023-02-18T02:35:01;31.40;;;15.90;;
53391;SDS011;41667;51.922;8.850;2023-02-18T02:37:43;37.47;;;16.38;;
53391;SDS011;41667;51.922;8.850;2023-02-18T02:40:19;34.00;;;17.55;;
53391;SDS011;41667;51.922;8.850;2023-02-18T02:47:57;37.25;;;17.95;;
53391;SDS011;41667;51.922;8.850;2023-02-18T02:50:26;38.97;;;17.15;;
53391;SDS011;41667;51.922;8.850;2023-02-18T02:52:56;42.25;;;18.17;;
53391;SDS011;41667;51.922;8.850;2023-02-18T02:55:23;33.75;;;18.08;;
53391;SDS011;41667;51.922;8.850;2023-02-18T02:57:49;33.83;;;17.05;;
53391;SDS011;41667;51.922;8.850;2023-02-18T03:00:16;34.47;;;18.08;;
53391;SDS011;41667;51.922;8.850;2023-02-18T03:02:53;33.38;;;17.23;;
53391;SDS011;41667;51.922;8.850;2023-02-18T03:08:03;39.55;;;17.30;;
53391;SDS011;41667;51.922;8.850;2023-02-18T03:20:57;35.72;;;18.92;;
53391;SDS011;41667;51.922;8.850;2023-02-18T03:23:26;38.58;;;20.20;;
53391;SDS011;41667;51.922;8.850;2023-02-18T03:25:51;37.97;;;18.17;;
53391;SDS011;41667;51.922;8.850;2023-02-18T03:28:17;38.20;;;19.00;;
53391;SDS011;41667;51.922;8.850;2023-02-18T03:30:45;31.00;;;15.95;;
53391;SDS011;41667;51.922;8.850;2023-02-18T03:33:13;34.90;;;17.20;;
53391;SDS011;41667;51.922;8.850;2023-02-18T03:35:39;35.50;;;16.27;;
53391;SDS011;41667;51.922;8.850;2023-02-18T03:38:08;30.25;;;15.80;;
53391;SDS011;41667;51.922;8.850;2023-02-18T03:40:35;30.80;;;15.98;;
53391;SDS011;41667;51.922;8.850;2023-02-18T03:43:00;25.88;;;14.55;;
53391;SDS011;41667;51.922;8.850;2023-02-18T03:45:26;31.20;;;15.98;;
53391;SDS011;41667;51.922;8.850;2023-02-18T03:47:51;30.13;;;14.82;;
53391;SDS011;41667;51.922;8.850;2023-02-18T03:50:16;30.58;;;13.45;;
53391;SDS011;41667;51.922;8.850;2023-02-18T03:52:41;23.70;;;12.02;;
53391;SDS011;41667;51.922;8.850;2023-02-18T03:55:07;27.90;;;13.90;;
53391;SDS011;41667;51.922;8.850;2023-02-18T03:57:33;22.30;;;11.52;;
53391;SDS011;41667;51.922;8.850;2023-02-18T03:59:58;20.53;;;9.53;;
53391;SDS011;41667;51.922;8.850;2023-02-18T04:02:23;14.35;;;7.95;;
53391;SDS011;41667;51.922;8.850;2023-02-18T04:04:48;13.88;;;7.50;;
53391;SDS011;41667;51.922;8.850;2023-02-18T04:07:13;13.45;;;6.70;;
53391;SDS011;41667;51.922;8.850;2023-02-18T04:09:39;14.70;;;7.47;;
53391;SDS011;41667;51.922;8.850;2023-02-18T04:12:04;16.52;;;7.93;;
53391;SDS011;41667;51.922;8.850;2023-02-18T04:14:29;12.77;;;7.47;;
53391;SDS011;41667;51.922;8.850;2023-02-18T04:16:54;21.33;;;10.30;;
53391;SDS011;41667;51.922;8.850;2023-02-18T04:19:19;17.60;;;8.63;;
53391;SDS011;41667;51.922;8.850;2023-02-18T04:21:45;17.63;;;8.40;;
53391;SDS011;41667;51.922;8.850;2023-02-18T04:24:10;15.88;;;8.35;;
53391;SDS011;41667;51.922;8.850;2023-02-18T04:26:35;18.48;;;8.07;;
53391;SDS011;41667;51.922;8.850;2023-02-18T04:29:00;14.50;;;7.90;;
53391;SDS011;41667;51.922;8.850;2023-02-18T04:31:25;14.30;;;7.95;;
53391;SDS011;41667;51.922;8.850;2023-02-18T04:33:50;16.60;;;7.82;;
53391;SDS011;41667;51.922;8.850;2023-02-18T04:36:15;14.55;;;8.00;;
53391;SDS011;41667;51.922;8.850;2023-02-18T04:38:40;14.90;;;7.50;;
53391;SDS011;41667;51.922;8.850;2023-02-18T04:41:07;21.17;;;10.52;;
53391;SDS011;41667;51.922;8.850;2023-02-18T04:43:32;20.17;;;10.30;;
53391;SDS011;41667;51.922;8.850;2023-02-18T04:45:57;23.38;;;11.20;;
53391;SDS011;41667;51.922;8.850;2023-02-18T04:48:22;20.60;;;10.55;;
53391;SDS011;41667;51.922;8.850;2023-02-18T04:50:47;28.57;;;11.57;;
53391;SDS011;41667;51.922;8.850;2023-02-18T04:53:12;23.40;;;11.80;;
53391;SDS011;41667;51.922;8.850;2023-02-18T04:55:37;34.08;;;13.40;;
53391;SDS011;41667;51.922;8.850;2023-02-18T04:58:02;32.88;;;13.88;;
53391;SDS011;41667;51.922;8.850;2023-02-18T05:00:28;31.87;;;15.23;;
53391;SDS011;41667;51.922;8.850;2023-02-18T05:02:53;32.87;;;13.60;;
53391;SDS011;41667;51.922;8.850;2023-02-18T05:05:18;33.63;;;15.80;;
53391;SDS011;41667;51.922;8.850;2023-02-18T05:07:43;29.40;;;12.80;;
53391;SDS011;41667;51.922;8.850;2023-02-18T05:10:09;34.13;;;14.00;;
53391;SDS011;41667;51.922;8.850;2023-02-18T05:12:35;35.92;;;15.32;;
53391;SDS011;41667;51.922;8.850;2023-02-18T05:15:00;36.63;;;16.30;;
53391;SDS011;41667;51.922;8.850;2023-02-18T05:17:25;33.08;;;14.55;;
53391;SDS011;41667;51.922;8.850;2023-02-18T05:19:50;29.43;;;13.40;;
53391;SDS011;41667;51.922;8.850;2023-02-18T05:22:15;33.28;;;14.32;;
53391;SDS011;41667;51.922;8.850;2023-02-18T05:24:40;28.60;;;12.13;;
53391;SDS011;41667;51.922;8.850;2023-02-18T05:27:05;26.27;;;11.68;;
53391;SDS011;41667;51.922;8.850;2023-02-18T05:29:30;30.70;;;14.15;;
53391;SDS011;41667;51.922;8.850;2023-02-18T05:31:56;27.23;;;10.73;;
53391;SDS011;41667;51.922;8.850;2023-02-18T05:34:21;23.57;;;10.53;;
53391;SDS011;41667;51.922;8.850;2023-02-18T05:36:46;23.40;;;11.48;;
53391;SDS011;41667;51.922;8.850;2023-02-18T05:39:11;20.40;;;9.93;;
53391;SDS011;41667;51.922;8.850;2023-02-18T05:41:36;23.15;;;10.20;;
53391;SDS011;41667;51.922;8.850;2023-02-18T05:44:01;15.20;;;7.97;;
53391;SDS011;41667;51.922;8.850;2023-02-18T05:46:45;16.65;;;8.27;;
53391;SDS011;41667;51.922;8.850;2023-02-18T05:49:10;20.00;;;8.82;;
53391;SDS011;41667;51.922;8.850;2023-02-18T05:51:35;14.57;;;8.00;;
53391;SDS011;41667;51.922;8.850;2023-02-18T05:54:00;14.75;;;6.80;;
53391;SDS011;41667;51.922;8.850;2023-02-18T05:56:26;14.57;;;7.40;;
53391;SDS011;41667;51.922;8.850;2023-02-18T05:58:51;18.60;;;8.20;;
53391;SDS011;41667;51.922;8.850;2023-02-18T06:01:16;21.17;;;9.20;;
53391;SDS011;41667;51.922;8.850;2023-02-18T06:03:41;18.23;;;8.23;;
53391;SDS011;41667;51.922;8.850;2023-02-18T06:06:06;20.13;;;10.27;;
53391;SDS011;41667;51.922;8.850;2023-02-18T06:08:31;16.63;;;8.98;;
53391;SDS011;41667;51.922;8.850;2023-02-18T06:10:57;21.05;;;8.95;;
53391;SDS011;41667;51.922;8.850;2023-02-18T06:13:22;22.27;;;9.93;;
53391;SDS011;41667;51.922;8.850;2023-02-18T06:15:49;21.45;;;7.95;;
53391;SDS011;41667;51.922;8.850;2023-02-18T06:18:14;14.50;;;7.20;;
53391;SDS011;41667;51.922;8.850;2023-02-18T06:20:39;19.73;;;9.13;;
53391;SDS011;41667;51.922;8.850;2023-02-18T06:23:05;17.43;;;6.97;;
53391;SDS011;41667;51.922;8.850;2023-02-18T06:25:30;16.33;;;7.00;;
53391;SDS011;41667;51.922;8.850;2023-02-18T06:27:55;17.02;;;6.47;;
53391;SDS011;41667;51.922;8.850;2023-02-18T06:30:20;11.40;;;5.15;;
53391;SDS011;41667;51.922;8.850;2023-02-18T06:32:45;14.15;;;5.93;;
53391;SDS011;41667;51.922;8.850;2023-02-18T06:35:10;12.30;;;5.47;;
53391;SDS011;41667;51.922;8.850;2023-02-18T06:37:36;9.07;;;4.60;;
53391;SDS011;41667;51.922;8.850;2023-02-18T06:40:01;8.75;;;4.53;;
53391;SDS011;41667;51.922;8.850;2023-02-18T06:42:26;5.53;;;2.85;;
53391;SDS011;41667;51.922;8.850;2023-02-18T06:44:51;5.15;;;2.97;;
53391;SDS011;41667;51.922;8.850;2023-02-18T06:47:16;6.38;;;2.92;;
53391;SDS011;41667;51.922;8.850;2023-02-18T06:49:41;9.80;;;2.60;;
53391;SDS011;41667;51.922;8.850;2023-02-18T06:52:06;5.05;;;3.00;;
53391;SDS011;41667;51.922;8.850;2023-02-18T06:54:32;4.82;;;2.47;;
53391;SDS011;41667;51.922;8.850;2023-02-18T06:56:57;5.82;;;3.20;;
53391;SDS011;41667;51.922;8.850;2023-02-18T06:59:22;4.70;;;2.50;;
53391;SDS011;41667;51.922;8.850;2023-02-18T07:01:47;6.95;;;3.35;;
53391;SDS011;41667;51.922;8.850;2023-02-18T07:04:13;3.60;;;2.50;;
53391;SDS011;41667;51.922;8.850;2023-02-18T07:06:38;2.77;;;2.20;;
53391;SDS011;41667;51.922;8.850;2023-02-18T07:09:03;7.15;;;2.22;;
53391;SDS011;41667;51.922;8.850;2023-02-18T07:11:28;1.85;;;1.58;;
53391;SDS011;41667;51.922;8.850;2023-02-18T07:13:54;2.10;;;1.70;;
53391;SDS011;41667;51.922;8.850;2023-02-18T07:16:19;2.40;;;1.40;;
53391;SDS011;41667;51.922;8.850;2023-02-18T07:18:44;1.63;;;1.52;;
53391;SDS011;41667;51.922;8.850;2023-02-18T07:21:09;1.95;;;1.38;;
53391;SDS011;41667;51.922;8.850;2023-02-18T07:23:34;2.00;;;1.63;;
53391;SDS011;41667;51.922;8.850;2023-02-18T07:26:04;1.20;;;1.10;;
53391;SDS011;41667;51.922;8.850;2023-02-18T07:28:29;1.33;;;1.23;;
53391;SDS011;41667;51.922;8.850;2023-02-18T07:30:54;1.20;;;1.10;;
53391;SDS011;41667;51.922;8.850;2023-02-18T07:33:19;1.25;;;1.02;;
53391;SDS011;41667;51.922;8.850;2023-02-18T07:35:44;1.60;;;1.48;;
53391;SDS011;41667;51.922;8.850;2023-02-18T07:38:09;1.95;;;1.50;;
53391;SDS011;41667;51.922;8.850;2023-02-18T07:40:35;3.90;;;1.98;;
53391;SDS011;41667;51.922;8.850;2023-02-18T07:43:00;2.17;;;1.50;;
53391;SDS011;41667;51.922;8.850;2023-02-18T07:45:25;1.67;;;1.57;;
53391;SDS011;41667;51.922;8.850;2023-02-18T07:47:50;2.20;;;1.73;;
53391;SDS011;41667;51.922;8.850;2023-02-18T07:50:15;2.40;;;2.00;;
53391;SDS011;41667;51.922;8.850;2023-02-18T07:52:40;1.20;;;1.10;;
53391;SDS011;41667;51.922;8.850;2023-02-18T07:55:05;3.33;;;2.20;;
53391;SDS011;41667;51.922;8.850;2023-02-18T07:57:31;2.67;;;1.98;;
53391;SDS011;41667;51.922;8.850;2023-02-18T07:59:56;1.58;;;1.48;;
53391;SDS011;41667;51.922;8.850;2023-02-18T08:02:22;1.55;;;1.42;;
53391;SDS011;41667;51.922;8.850;2023-02-18T08:04:47;2.05;;;1.30;;
53391;SDS011;41667;51.922;8.850;2023-02-18T08:07:13;1.90;;;1.80;;
53391;SDS011;41667;51.922;8.850;2023-02-18T08:09:38;1.48;;;1.38;;
53391;SDS011;41667;51.922;8.850;2023-02-18T08:12:04;1.50;;;1.40;;
53391;SDS011;41667;51.922;8.850;2023-02-18T08:14:29;1.58;;;1.48;;
53391;SDS011;41667;51.922;8.850;2023-02-18T08:16:54;1.58;;;1.48;;
53391;SDS011;41667;51.922;8.850;2023-02-18T08:19:19;1.48;;;1.38;;
53391;SDS011;41667;51.922;8.850;2023-02-18T08:21:44;1.73;;;1.63;;
53391;SDS011;41667;51.922;8.850;2023-02-18T08:24:10;3.42;;;2.00;;
53391;SDS011;41667;51.922;8.850;2023-02-18T08:26:35;1.80;;;1.70;;
53391;SDS011;41667;51.922;8.850;2023-02-18T08:29:00;2.22;;;1.77;;
53391;SDS011;41667;51.922;8.850;2023-02-18T08:31:26;2.03;;;1.88;;
53391;SDS011;41667;51.922;8.850;2023-02-18T08:33:52;2.28;;;1.88;;
53391;SDS011;41667;51.922;8.850;2023-02-18T08:36:18;2.17;;;1.85;;
53391;SDS011;41667;51.922;8.850;2023-02-18T08:38:43;2.03;;;1.88;;
53391;SDS011;41667;51.922;8.850;2023-02-18T08:41:08;2.80;;;2.28;;
53391;SDS011;41667;51.922;8.850;2023-02-18T08:43:34;3.13;;;2.63;;
53391;SDS011;41667;51.922;8.850;2023-02-18T08:45:59;3.03;;;2.40;;
53391;SDS011;41667;51.922;8.850;2023-02-18T08:48:24;2.70;;;2.50;;
53391;SDS011;41667;51.922;8.850;2023-02-18T08:50:49;3.95;;;2.90;;
53391;SDS011;41667;51.922;8.850;2023-02-18T08:53:15;5.43;;;3.58;;
53391;SDS011;41667;51.922;8.850;2023-02-18T08:55:40;4.45;;;3.75;;
53391;SDS011;41667;51.922;8.850;2023-02-18T08:58:05;3.88;;;2.78;;
53391;SDS011;41667;51.922;8.850;2023-02-18T09:00:31;4.57;;;3.10;;
53391;SDS011;41667;51.922;8.850;2023-02-18T09:02:56;2.40;;;2.20;;
53391;SDS011;41667;51.922;8.850;2023-02-18T09:05:21;4.03;;;3.13;;
53391;SDS011;41667;51.922;8.850;2023-02-18T09:07:46;3.92;;;3.22;;
53391;SDS011;41667;51.922;8.850;2023-02-18T09:10:12;3.20;;;2.65;;
53391;SDS011;41667;51.922;8.850;2023-02-18T09:12:37;3.88;;;3.25;;
53391;SDS011;41667;51.922;8.850;2023-02-18T09:15:02;6.07;;;3.13;;
53391;SDS011;41667;51.922;8.850;2023-02-18T09:17:28;4.13;;;2.88;;
53391;SDS011;41667;51.922;8.850;2023-02-18T09:19:53;4.83;;;3.27;;
53391;SDS011;41667;51.922;8.850;2023-02-18T09:22:19;3.85;;;2.88;;
53391;SDS011;41667;51.922;8.850;2023-02-18T09:24:44;4.95;;;3.60;;
53391;SDS011;41667;51.922;8.850;2023-02-18T09:27:09;4.00;;;3.60;;
53391;SDS011;41667;51.922;8.850;2023-02-18T09:29:37;5.00;;;3.38;;
53391;SDS011;41667;51.922;8.850;2023-02-18T09:32:02;5.88;;;4.10;;
53391;SDS011;41667;51.922;8.850;2023-02-18T09:34:27;6.27;;;4.40;;
53391;SDS011;41667;51.922;8.850;2023-02-18T09:36:52;6.30;;;3.80;;
53391;SDS011;41667;51.922;8.850;2023-02-18T09:39:18;5.88;;;4.13;;
53391;SDS011;41667;51.922;8.850;2023-02-18T09:41:47;5.93;;;4.68;;
53391;SDS011;41667;51.922;8.850;2023-02-18T09:45:14;6.32;;;4.35;;
53391;SDS011;41667;51.922;8.850;2023-02-18T09:47:10;6.85;;;4.50;;
53391;SDS011;41667;51.922;8.850;2023-02-18T09:49:38;9.13;;;5.68;;
53391;SDS011;41667;51.922;8.850;2023-02-18T09:54:35;8.43;;;5.30;;
53391;SDS011;41667;51.922;8.850;2023-02-18T09:57:00;12.48;;;6.63;;
53391;SDS011;41667;51.922;8.850;2023-02-18T09:59:25;9.02;;;6.13;;
53391;SDS011;41667;51.922;8.850;2023-02-18T10:01:51;7.63;;;6.25;;
53391;SDS011;41667;51.922;8.850;2023-02-18T10:04:19;6.15;;;5.47;;
53391;SDS011;41667;51.922;8.850;2023-02-18T10:06:47;7.55;;;5.93;;
53391;SDS011;41667;51.922;8.850;2023-02-18T10:09:17;6.78;;;4.50;;
53391;SDS011;41667;51.922;8.850;2023-02-18T10:11:43;6.90;;;4.93;;
53391;SDS011;41667;51.922;8.850;2023-02-18T10:14:11;5.35;;;3.33;;
53391;SDS011;41667;51.922;8.850;2023-02-18T10:16:37;3.42;;;3.00;;
53391;SDS011;41667;51.922;8.850;2023-02-18T10:21:42;4.63;;;3.65;;
53391;SDS011;41667;51.922;8.850;2023-02-18T10:24:18;5.50;;;4.10;;
53391;SDS011;41667;51.922;8.850;2023-02-18T10:26:46;6.15;;;4.57;;
53391;SDS011;41667;51.922;8.850;2023-02-18T10:29:13;7.10;;;4.95;;
53391;SDS011;41667;51.922;8.850;2023-02-18T10:31:39;4.85;;;4.35;;
53391;SDS011;41667;51.922;8.850;2023-02-18T10:34:15;4.72;;;4.07;;
53391;SDS011;41667;51.922;8.850;2023-02-18T10:36:46;6.53;;;4.82;;
53391;SDS011;41667;51.922;8.850;2023-02-18T10:39:22;10.48;;;5.20;;
53391;SDS011;41667;51.922;8.850;2023-02-18T10:41:56;6.85;;;4.82;;
53391;SDS011;41667;51.922;8.850;2023-02-18T10:44:29;6.10;;;4.22;;
53391;SDS011;41667;51.922;8.850;2023-02-18T10:49:44;5.85;;;5.10;;
53391;SDS011;41667;51.922;8.850;2023-02-18T10:52:13;6.10;;;4.68;;
53391;SDS011;41667;51.922;8.850;2023-02-18T10:57:18;4.55;;;3.25;;
53391;SDS011;41667;51.922;8.850;2023-02-18T10:59:53;5.00;;;4.50;;
53391;SDS011;41667;51.922;8.850;2023-02-18T11:02:18;7.13;;;5.00;;
53391;SDS011;41667;51.922;8.850;2023-02-18T11:04:43;7.10;;;5.43;;
53391;SDS011;41667;51.922;8.850;2023-02-18T11:07:20;6.68;;;4.97;;
53391;SDS011;41667;51.922;8.850;2023-02-18T11:09:47;6.78;;;4.97;;
53391;SDS011;41667;51.922;8.850;2023-02-18T11:12:17;8.20;;;5.45;;
53391;SDS011;41667;51.922;8.850;2023-02-18T11:14:44;7.82;;;4.90;;
53391;SDS011;41667;51.922;8.850;2023-02-18T11:17:20;7.97;;;5.65;;
53391;SDS011;41667;51.922;8.850;2023-02-18T11:19:56;10.68;;;7.55;;
53391;SDS011;41667;51.922;8.850;2023-02-18T11:22:27;11.50;;;7.45;;
53391;SDS011;41667;51.922;8.850;2023-02-18T11:24:54;13.75;;;6.68;;
53391;SDS011;41667;51.922;8.850;2023-02-18T11:29:51;8.73;;;6.03;;
53391;SDS011;41667;51.922;8.850;2023-02-18T11:32:17;9.18;;;6.43;;
53391;SDS011;41667;51.922;8.850;2023-02-18T11:34:42;11.65;;;6.80;;
53391;SDS011;41667;51.922;8.850;2023-02-18T11:37:11;13.93;;;7.82;;
53391;SDS011;41667;51.922;8.850;2023-02-18T11:39:37;12.30;;;7.40;;
53391;SDS011;41667;51.922;8.850;2023-02-18T11:42:06;10.60;;;6.13;;
53391;SDS011;41667;51.922;8.850;2023-02-18T11:44:35;12.37;;;8.17;;
53391;SDS011;41667;51.922;8.850;2023-02-18T11:47:05;14.38;;;8.35;;
53391;SDS011;41667;51.922;8.850;2023-02-18T11:49:32;11.68;;;7.85;;
53391;SDS011;41667;51.922;8.850;2023-02-18T11:54:29;12.23;;;8.25;;
53391;SDS011;41667;51.922;8.850;2023-02-18T11:57:02;14.15;;;8.27;;
53391;SDS011;41667;51.922;8.850;2023-02-18T11:59:29;12.18;;;8.50;;
53391;SDS011;41667;51.922;8.850;2023-02-18T12:07:14;13.20;;;7.20;;
53391;SDS011;41667;51.922;8.850;2023-02-18T12:09:45;11.75;;;6.50;;
53391;SDS011;41667;51.922;8.850;2023-02-18T12:12:16;13.50;;;8.23;;
53391;SDS011;41667;51.922;8.850;2023-02-18T12:14:43;10.40;;;6.15;;
53391;SDS011;41667;51.922;8.850;2023-02-18T12:19:48;16.73;;;8.00;;
53391;SDS011;41667;51.922;8.850;2023-02-18T12:45:53;9.75;;;6.78;;
53391;SDS011;41667;51.922;8.850;2023-02-18T12:48:29;7.78;;;5.63;;
53391;SDS011;41667;51.922;8.850;2023-02-18T12:51:02;8.27;;;5.97;;
53391;SDS011;41667;51.922;8.850;2023-02-18T12:56:04;10.90;;;6.93;;
53391;SDS011;41667;51.922;8.850;2023-02-18T13:01:07;5.70;;;4.57;;
53391;SDS011;41667;51.922;8.850;2023-02-18T13:08:34;7.03;;;5.15;;
53391;SDS011;41667;51.922;8.850;2023-02-18T13:13:35;8.07;;;5.93;;
53391;SDS011;41667;51.922;8.850;2023-02-18T13:16:15;10.73;;;6.40;;
53391;SDS011;41667;51.922;8.850;2023-02-18T13:18:46;9.23;;;5.85;;
53391;SDS011;41667;51.922;8.850;2023-02-18T13:21:15;9.02;;;5.40;;
53391;SDS011;41667;51.922;8.850;2023-02-18T13:23:57;8.25;;;5.30;;
53391;SDS011;41667;51.922;8.850;2023-02-18T13:26:23;10.10;;;5.32;;
53391;SDS011;41667;51.922;8.850;2023-02-18T13:36:31;6.10;;;4.38;;
53391;SDS011;41667;51.922;8.850;2023-02-18T13:41:27;5.40;;;4.72;;
53391;SDS011;41667;51.922;8.850;2023-02-18T13:43:52;5.97;;;4.85;;
53391;SDS011;41667;51.922;8.850;2023-02-18T13:46:19;5.97;;;4.53;;
53391;SDS011;41667;51.922;8.850;2023-02-18T13:51:15;6.47;;;5.05;;
53391;SDS011;41667;51.922;8.850;2023-02-18T13:53:41;6.60;;;4.47;;
53391;SDS011;41667;51.922;8.850;2023-02-18T13:56:20;7.85;;;4.78;;
53391;SDS011;41667;51.922;8.850;2023-02-18T13:58:58;7.85;;;4.85;;
53391;SDS011;41667;51.922;8.850;2023-02-18T14:01:44;7.32;;;5.38;;
53391;SDS011;41667;51.922;8.850;2023-02-18T14:09:39;10.32;;;5.68;;
53391;SDS011;41667;51.922;8.850;2023-02-18T14:12:25;9.05;;;5.68;;
53391;SDS011;41667;51.922;8.850;2023-02-18T14:14:50;10.90;;;7.38;;
53391;SDS011;41667;51.922;8.850;2023-02-18T14:27:26;14.95;;;6.35;;
53391;SDS011;41667;51.922;8.850;2023-02-18T14:29:51;8.75;;;5.70;;
53391;SDS011;41667;51.922;8.850;2023-02-18T14:32:16;7.13;;;5.07;;
53391;SDS011;41667;51.922;8.850;2023-02-18T14:34:46;4.97;;;3.80;;
53391;SDS011;41667;51.922;8.850;2023-02-18T14:42:45;12.13;;;5.43;;
53391;SDS011;41667;51.922;8.850;2023-02-18T14:45:17;10.15;;;6.35;;
53391;SDS011;41667;51.922;8.850;2023-02-18T14:50:23;9.02;;;5.28;;
53391;SDS011;41667;51.922;8.850;2023-02-18T14:52:49;10.90;;;5.85;;
53391;SDS011;41667;51.922;8.850;2023-02-18T14:55:21;14.27;;;6.32;;
53391;SDS011;41667;51.922;8.850;2023-02-18T14:57:51;8.52;;;4.70;;
53391;SDS011;41667;51.922;8.850;2023-02-18T15:00:19;9.05;;;6.18;;
53391;SDS011;41667;51.922;8.850;2023-02-18T15:02:47;12.00;;;7.30;;
53391;SDS011;41667;51.922;8.850;2023-02-18T15:05:17;6.25;;;4.30;;
53391;SDS011;41667;51.922;8.850;2023-02-18T15:07:59;8.52;;;5.78;;
53391;SDS011;41667;51.922;8.850;2023-02-18T15:10:30;10.18;;;5.75;;
53391;SDS011;41667;51.922;8.850;2023-02-18T15:12:59;13.30;;;5.75;;
53391;SDS011;41667;51.922;8.850;2023-02-18T15:15:25;9.10;;;5.90;;
53391;SDS011;41667;51.922;8.850;2023-02-18T15:17:50;7.27;;;5.70;;
53391;SDS011;41667;51.922;8.850;2023-02-18T15:20:16;8.17;;;4.93;;
53391;SDS011;41667;51.922;8.850;2023-02-18T15:22:41;11.20;;;6.10;;
53391;SDS011;41667;51.922;8.850;2023-02-18T15:25:08;12.60;;;5.95;;
53391;SDS011;41667;51.922;8.850;2023-02-18T15:27:37;7.05;;;4.75;;
53391;SDS011;41667;51.922;8.850;2023-02-18T15:30:11;7.75;;;4.85;;
53391;SDS011;41667;51.922;8.850;2023-02-18T15:32:39;6.82;;;4.80;;
53391;SDS011;41667;51.922;8.850;2023-02-18T15:35:13;9.23;;;4.80;;
53391;SDS011;41667;51.922;8.850;2023-02-18T15:37:42;8.52;;;5.10;;
53391;SDS011;41667;51.922;8.850;2023-02-18T15:40:12;6.00;;;4.32;;
53391;SDS011;41667;51.922;8.850;2023-02-18T15:42:37;8.02;;;4.43;;
53391;SDS011;41667;51.922;8.850;2023-02-18T15:45:03;8.02;;;5.30;;
53391;SDS011;41667;51.922;8.850;2023-02-18T15:47:34;6.97;;;4.47;;
53391;SDS011;41667;51.922;8.850;2023-02-18T15:50:00;8.20;;;5.07;;
53391;SDS011;41667;51.922;8.850;2023-02-18T15:52:26;6.82;;;4.60;;
53391;SDS011;41667;51.922;8.850;2023-02-18T15:54:52;8.18;;;5.10;;
53391;SDS011;41667;51.922;8.850;2023-02-18T15:57:18;10.85;;;7.07;;
53391;SDS011;41667;51.922;8.850;2023-02-18T15:59:53;7.95;;;5.40;;
53391;SDS011;41667;51.922;8.850;2023-02-18T16:02:19;8.57;;;5.30;;
53391;SDS011;41667;51.922;8.850;2023-02-18T16:04:47;7.95;;;5.30;;
53391;SDS011;41667;51.922;8.850;2023-02-18T16:07:18;7.70;;;5.68;;
53391;SDS011;41667;51.922;8.850;2023-02-18T16:09:44;8.43;;;5.00;;
53391;SDS011;41667;51.922;8.850;2023-02-18T16:12:16;9.90;;;5.22;;
53391;SDS011;41667;51.922;8.850;2023-02-18T16:14:44;7.13;;;4.90;;
53391;SDS011;41667;51.922;8.850;2023-02-18T16:17:13;8.30;;;5.72;;
53391;SDS011;41667;51.922;8.850;2023-02-18T16:19:48;5.83;;;5.13;;
53391;SDS011;41667;51.922;8.850;2023-02-18T16:22:22;12.43;;;6.28;;
53391;SDS011;41667;51.922;8.850;2023-02-18T16:24:48;9.70;;;4.97;;
53391;SDS011;41667;51.922;8.850;2023-02-18T16:27:15;5.85;;;4.78;;
53391;SDS011;41667;51.922;8.850;2023-02-18T16:29:41;8.82;;;5.15;;
53391;SDS011;41667;51.922;8.850;2023-02-18T16:32:07;7.35;;;5.03;;
53391;SDS011;41667;51.922;8.850;2023-02-18T16:34:32;5.40;;;4.50;;
53391;SDS011;41667;51.922;8.850;2023-02-18T16:36:59;8.45;;;4.80;;
53391;SDS011;41667;51.922;8.850;2023-02-18T16:39:43;8.32;;;4.53;;
53391;SDS011;41667;51.922;8.850;2023-02-18T16:42:09;10.97;;;4.70;;
53391;SDS011;41667;51.922;8.850;2023-02-18T16:44:36;5.72;;;3.80;;
53391;SDS011;41667;51.922;8.850;2023-02-18T16:47:03;8.93;;;5.78;;
53391;SDS011;41667;51.922;8.850;2023-02-18T16:49:28;8.60;;;5.00;;